ΕΜΥ, Εθνική Μετεωρολογική Υπηρεσία - Δελτία Καιρού, Προγνώσεις

ΑΕΡΟΝΑΥΤΙΛΙΑ

GREEK AIRPORTS CODES

TAF LGKC 120200Z 1203/1212 18015KT 9999 FEW018TCU BKN025 PROB40 TEMPO 1203/1212 5000 RA PROB40 TEMPO 1203/1212 4000 TSRA SCT008 FEW018CB BKN020=

EUROPEAN AIRPORTS CODES